»·PEaware :: SWA3965 KPHX-KSAN

SWA3965 :: KPHX-KSAN

FLIGHT INFORMATION

Flight Status: Arrived
Operator:
Southwest Airlines
More flights by this operator :: More flights under this callsign
Pilot: Paul A. (20189)
Aircraft: BOEING 737-700
(B737)
More flights by this aircraft type
Origin: KPHX Phoenix Sky Harbor Intl
United States
Destination: KSAN San Diego Intl-Lindbergh
United States
More flights between these airports :: More routes between these airports
Route: FYRBD1 MOHAK J2 HOGGZ LUCKI1
File this flight plan on PilotEdge
Remarks:
Altitude:
(Current/Filed)
32,000ft
Speed:
(Current/Filed)
455kts
Departed: 07-Nov-18 06:25 PM
Arrived: 07-Nov-18 07:16 PM
Distance/Time
Traveled:
264nm/0:51
Distance/Time
To Go:
Arrived

Flight Plot

Page will automatically refresh every two minutes.

Flight plan parsing failed; only flown route is shown


Map Options




Map Legend


Flown Route
Filed Route
Departure Airport
Arrival Airport
Navaid (VOR, NDB)
Fix

Horizontal Profiles

Position Reports

Time Latitude Longitude Heading Altitude Ground
Speed
07-Nov-18 17:58 33.433392 -111.994091 343 1142ft 0kts
07-Nov-18 17:59 33.433392 -111.994091 343 1142ft 0kts
07-Nov-18 18:00 33.433392 -111.994091 343 1142ft 0kts
07-Nov-18 18:01 33.433392 -111.994091 343 1142ft 0kts
07-Nov-18 18:02 33.433392 -111.994091 343 1142ft 0kts
07-Nov-18 18:07 33.433675 -111.993744 315 1142ft 0kts
07-Nov-18 18:08 33.433675 -111.993744 315 1142ft 0kts
07-Nov-18 18:09 33.433675 -111.993744 315 1142ft 0kts
07-Nov-18 18:10 33.433675 -111.993744 315 1142ft 0kts
07-Nov-18 18:11 33.433675 -111.993744 315 1142ft 0kts
07-Nov-18 18:12 33.433675 -111.993744 315 1142ft 0kts
07-Nov-18 18:13 33.433675 -111.993744 315 1142ft 0kts
07-Nov-18 18:14 33.433675 -111.993744 315 1142ft 0kts
07-Nov-18 18:15 33.433675 -111.993744 315 1142ft 0kts
07-Nov-18 18:16 33.433675 -111.993744 315 1142ft 0kts
07-Nov-18 18:17 33.433675 -111.993744 315 1142ft 0kts
07-Nov-18 18:18 33.433675 -111.993744 315 1142ft 0kts
07-Nov-18 18:19 33.433675 -111.993744 315 1142ft 0kts
07-Nov-18 18:20 33.433675 -111.993744 315 1142ft 0kts
07-Nov-18 18:21 33.433404 -111.993412 305 1142ft 2kts
07-Nov-18 18:22 33.433209 -111.992947 295 1142ft 0kts
07-Nov-18 18:23 33.433209 -111.992947 295 1142ft 0kts
07-Nov-18 18:24 33.433209 -111.992947 295 1142ft 0kts
07-Nov-18 18:25 33.433209 -111.992947 295 1142ft 0kts
07-Nov-18 18:26 33.432676 -111.993478 194 1142ft 10kts
07-Nov-18 18:27 33.432006 -111.993550 178 1142ft 0kts
07-Nov-18 18:28 33.431007 -111.997463 270 1143ft 72kts
07-Nov-18 18:29 33.431834 -112.045820 264 3131ft 167kts
07-Nov-18 18:30 33.414862 -112.112356 249 4678ft 253kts
07-Nov-18 18:31 33.372978 -112.180218 193 8006ft 279kts
07-Nov-18 18:32 33.294535 -112.156347 166 10995ft 314kts
07-Nov-18 18:33 33.217937 -112.208043 234 12739ft 356kts
07-Nov-18 18:34 33.160328 -112.306434 240 15845ft 368kts
07-Nov-18 18:35 33.103364 -112.411067 241 18774ft 381kts
07-Nov-18 18:36 33.044372 -112.518197 241 21418ft 393kts
07-Nov-18 18:37 32.982850 -112.627839 240 23739ft 402kts
07-Nov-18 18:38 32.946596 -112.751674 262 25737ft 400kts
07-Nov-18 18:39 32.928140 -112.883741 262 27515ft 407kts
07-Nov-18 18:40 32.909653 -113.017696 262 29164ft 411kts
07-Nov-18 18:41 32.891616 -113.150065 262 31249ft 402kts
07-Nov-18 18:42 32.873653 -113.281061 262 31944ft 401kts
07-Nov-18 18:43 32.855735 -113.411559 261 31942ft 400kts
07-Nov-18 18:44 32.837309 -113.542207 261 31937ft 400kts
07-Nov-18 18:45 32.818741 -113.672657 261 31932ft 400kts
07-Nov-18 18:46 32.800213 -113.803331 261 31928ft 402kts
07-Nov-18 18:47 32.781330 -113.934156 261 31925ft 401kts
07-Nov-18 18:48 32.774888 -114.066847 269 31922ft 404kts
07-Nov-18 18:49 32.780115 -114.200245 272 31921ft 404kts
07-Nov-18 18:50 32.785411 -114.333478 272 31920ft 404kts
07-Nov-18 18:51 32.809263 -114.463630 285 31919ft 406kts
07-Nov-18 18:52 32.844058 -114.591443 285 31919ft 406kts
07-Nov-18 18:53 32.874460 -114.719948 275 31917ft 404kts
07-Nov-18 18:54 32.875829 -114.853474 269 31915ft 403kts
07-Nov-18 18:55 32.873384 -114.987139 269 31913ft 405kts
07-Nov-18 18:56 32.870500 -115.121328 268 31911ft 404kts
07-Nov-18 18:57 32.867106 -115.254549 268 30878ft 401kts
07-Nov-18 18:58 32.859394 -115.383236 262 27968ft 400kts
07-Nov-18 18:59 32.840610 -115.511861 261 25497ft 389kts
07-Nov-18 19:00 32.819826 -115.638802 261 23585ft 391kts
07-Nov-18 19:01 32.799029 -115.764369 261 21695ft 385kts
07-Nov-18 19:02 32.780929 -115.888387 266 19715ft 376kts
07-Nov-18 19:03 32.772979 -116.009654 267 17998ft 367kts
07-Nov-18 19:04 32.764026 -116.130860 267 16197ft 365kts
07-Nov-18 19:05 32.754989 -116.247307 267 14485ft 341kts
07-Nov-18 19:06 32.746775 -116.354829 267 12943ft 318kts
07-Nov-18 19:07 32.738840 -116.457162 267 11360ft 299kts
07-Nov-18 19:08 32.730593 -116.550084 265 9804ft 274kts
07-Nov-18 19:09 32.721765 -116.640845 264 8654ft 274kts
07-Nov-18 19:10 32.714439 -116.730083 265 7301ft 269kts
07-Nov-18 19:11 32.707463 -116.813416 261 6058ft 260kts
07-Nov-18 19:12 32.686025 -116.887044 250 4935ft 216kts
07-Nov-18 19:13 32.675238 -116.951734 286 3968ft 187kts
07-Nov-18 19:14 32.689419 -117.007034 286 3172ft 172kts
07-Nov-18 19:15 32.702498 -117.061181 286 2319ft 168kts
07-Nov-18 19:16 32.715026 -117.112999 286 1423ft 146kts
07-Nov-18 19:17 32.726151 -117.159032 287 487ft 147kts
07-Nov-18 19:18 32.735673 -117.198970 290 23ft 54kts
07-Nov-18 19:19 32.735814 -117.201888 229 23ft 0kts
07-Nov-18 19:20 32.734547 -117.198098 106 23ft 20kts
07-Nov-18 19:21 32.733315 -117.195982 198 23ft 0kts

Navigation Log

Ident Type
Flight plan parsing failed, navigation log unavailable